createdAt,value
2022-08-08T00:00:54.678Z,12.20
2022-08-08T00:01:06.898Z,13.49
2022-08-08T00:02:30.412Z,12.20
2022-08-08T00:02:58.862Z,11.55
2022-08-08T00:03:57.818Z,11.55
2022-08-08T00:04:57.820Z,11.23
2022-08-08T00:06:02.752Z,12.52
2022-08-08T00:06:58.752Z,11.23
2022-08-08T00:07:58.714Z,10.59
2022-08-08T00:08:57.695Z,10.59
2022-08-08T00:09:57.685Z,10.59
2022-08-08T00:10:57.675Z,12.52
2022-08-08T00:12:07.142Z,11.87
2022-08-08T00:12:58.644Z,11.87
2022-08-08T00:14:15.273Z,11.23
2022-08-08T00:15:00.651Z,12.20
2022-08-08T00:15:58.292Z,12.20
2022-08-08T00:16:57.604Z,10.59
2022-08-08T00:18:03.091Z,11.87
2022-08-08T00:18:58.576Z,11.87
2022-08-08T00:19:57.557Z,11.55
2022-08-08T00:20:57.546Z,13.16
2022-08-08T00:21:57.578Z,9.62
2022-08-08T00:22:57.525Z,11.87
2022-08-08T00:23:57.508Z,9.62
2022-08-08T00:24:57.488Z,11.87
2022-08-08T00:25:57.539Z,8.65
2022-08-08T00:26:57.490Z,11.55
2022-08-08T00:27:57.458Z,11.55
2022-08-08T00:28:57.438Z,12.20
2022-08-08T00:29:57.431Z,11.87
2022-08-08T00:31:00.500Z,11.23
2022-08-08T00:32:20.647Z,13.49
2022-08-08T00:32:58.389Z,12.52
2022-08-08T00:34:18.617Z,13.49
2022-08-08T00:34:58.361Z,12.84
2022-08-08T00:35:57.351Z,11.87
2022-08-08T00:37:03.528Z,12.20
2022-08-08T00:38:02.436Z,11.55
2022-08-08T00:38:57.312Z,12.20
2022-08-08T00:41:10.085Z,11.55
2022-08-08T00:41:11.528Z,9.30
2022-08-08T00:42:08.800Z,10.59
2022-08-08T00:42:59.221Z,11.87
2022-08-08T00:43:59.198Z,10.91
2022-08-08T00:44:57.234Z,9.62
2022-08-08T00:45:57.224Z,10.59
2022-08-08T00:46:58.570Z,11.23
2022-08-08T00:48:01.978Z,11.87
2022-08-08T00:49:01.061Z,13.49
2022-08-08T00:49:59.275Z,11.55
2022-08-08T00:50:57.154Z,11.55
2022-08-08T00:51:57.246Z,10.26
2022-08-08T00:52:57.138Z,10.59
2022-08-08T00:54:15.337Z,11.55
2022-08-08T00:54:58.106Z,10.26
2022-08-08T00:55:59.083Z,11.55
2022-08-08T00:56:57.087Z,9.30
2022-08-08T00:57:58.344Z,10.59
2022-08-08T00:58:57.998Z,11.87
2022-08-08T00:59:57.039Z,12.20
2022-08-08T01:00:57.072Z,11.87
2022-08-08T01:02:01.717Z,11.87
2022-08-08T01:04:01.252Z,9.94
2022-08-08T01:04:04.734Z,11.87
2022-08-08T01:04:57.969Z,11.55
2022-08-08T01:05:59.774Z,12.52
2022-08-08T01:07:01.521Z,12.20
2022-08-08T01:07:57.067Z,10.26
2022-08-08T01:08:56.920Z,11.55
2022-08-08T01:09:56.910Z,11.55
2022-08-08T01:10:56.901Z,11.23
2022-08-08T01:11:56.883Z,13.49
2022-08-08T01:12:56.873Z,11.23
2022-08-08T01:13:58.058Z,11.23
2022-08-08T01:14:57.394Z,10.91
2022-08-08T01:15:56.831Z,11.23
2022-08-08T01:16:56.813Z,11.55
2022-08-08T01:17:59.145Z,9.94
2022-08-08T01:18:57.788Z,11.87
2022-08-08T01:20:03.207Z,13.49
2022-08-08T01:20:57.764Z,11.55
2022-08-08T01:22:09.976Z,11.87
2022-08-08T01:22:57.734Z,11.55
2022-08-08T01:24:05.433Z,11.23
2022-08-08T01:24:57.706Z,11.55
2022-08-08T01:25:56.704Z,9.62
2022-08-08T01:26:57.689Z,11.87
2022-08-08T01:28:00.184Z,9.30
2022-08-08T01:28:59.078Z,13.16
2022-08-08T01:29:59.744Z,11.23
2022-08-08T01:30:57.646Z,13.16
2022-08-08T01:32:15.208Z,13.16
2022-08-08T01:32:57.604Z,11.23
2022-08-08T01:34:01.057Z,11.55
2022-08-08T01:34:56.577Z,10.59
2022-08-08T01:36:01.204Z,11.87
2022-08-08T01:36:56.547Z,9.62
2022-08-08T01:37:58.948Z,9.94
2022-08-08T01:38:56.524Z,11.55
2022-08-08T01:39:56.585Z,11.55
2022-08-08T01:40:56.508Z,9.62
2022-08-08T01:41:56.499Z,12.52
2022-08-08T01:42:56.477Z,11.55
2022-08-08T01:43:56.459Z,11.23
2022-08-08T01:44:56.451Z,11.23
2022-08-08T01:45:56.694Z,12.84
2022-08-08T01:46:56.420Z,9.30
2022-08-08T01:48:16.847Z,13.16
2022-08-08T01:48:57.401Z,10.91
2022-08-08T01:49:57.301Z,11.23
2022-08-08T01:50:56.383Z,11.55
2022-08-08T01:52:42.495Z,11.23
2022-08-08T01:55:15.108Z,10.91
2022-08-08T01:55:17.985Z,11.55
2022-08-08T01:55:25.814Z,13.49
2022-08-08T01:56:28.502Z,11.23
2022-08-08T01:56:57.294Z,9.62
2022-08-08T01:58:11.215Z,9.62
2022-08-08T01:58:57.271Z,12.20
2022-08-08T02:00:02.785Z,10.91
2022-08-08T02:00:58.405Z,11.55
2022-08-08T02:02:03.114Z,10.59
2022-08-08T02:02:57.217Z,10.59
2022-08-08T02:03:57.375Z,11.55
2022-08-08T02:04:56.186Z,11.23
2022-08-08T02:05:59.182Z,11.55
2022-08-08T02:06:56.164Z,11.23
2022-08-08T02:07:56.146Z,10.26
2022-08-08T02:08:56.189Z,11.55
2022-08-08T02:10:03.230Z,9.62
2022-08-08T02:10:57.124Z,8.97
2022-08-08T02:12:00.437Z,10.59
2022-08-08T02:12:56.087Z,9.30
2022-08-08T02:13:56.069Z,9.94
2022-08-08T02:14:58.840Z,10.59
2022-08-08T02:15:56.049Z,10.91
2022-08-08T02:16:56.029Z,8.33
2022-08-08T02:17:56.010Z,10.59
2022-08-08T02:18:58.543Z,10.26
2022-08-08T02:20:08.409Z,9.94
2022-08-08T02:21:01.612Z,10.59
2022-08-08T02:21:56.961Z,11.87
2022-08-08T02:22:55.950Z,10.59
2022-08-08T02:23:55.937Z,10.59
2022-08-08T02:24:55.933Z,9.30
2022-08-08T02:25:56.360Z,9.62
2022-08-08T02:26:58.026Z,10.26
2022-08-08T02:27:56.883Z,11.23
2022-08-08T02:28:55.881Z,11.23
2022-08-08T02:29:55.866Z,11.23
2022-08-08T02:30:58.306Z,10.59
2022-08-08T02:32:00.683Z,10.59
2022-08-08T02:32:55.823Z,11.23
2022-08-08T02:34:00.490Z,8.97
2022-08-08T02:35:11.045Z,12.52
2022-08-08T02:36:04.066Z,8.65
2022-08-08T02:36:56.775Z,11.55
2022-08-08T02:37:56.706Z,10.59
2022-08-08T02:38:55.741Z,8.33
2022-08-08T02:40:00.061Z,10.91
2022-08-08T02:40:55.762Z,10.91
2022-08-08T02:42:03.524Z,9.62
2022-08-08T02:44:35.221Z,10.59
2022-08-08T02:44:37.275Z,10.91
2022-08-08T02:44:58.771Z,8.65
2022-08-08T02:45:56.799Z,10.59
2022-08-08T02:46:55.637Z,11.87
2022-08-08T02:47:55.916Z,12.52
2022-08-08T02:48:55.607Z,8.65
2022-08-08T02:49:55.610Z,12.52
2022-08-08T02:50:56.901Z,10.91
2022-08-08T02:51:59.587Z,10.91
2022-08-08T02:52:56.570Z,10.91
2022-08-08T02:53:56.841Z,10.59
2022-08-08T02:54:55.550Z,10.91
2022-08-08T02:55:59.860Z,10.59
2022-08-08T02:56:55.686Z,8.65
2022-08-08T02:57:55.491Z,11.55
2022-08-08T02:58:56.442Z,10.59
2022-08-08T02:59:56.983Z,10.26
2022-08-08T03:00:56.434Z,11.23
2022-08-08T03:01:55.518Z,10.59
2022-08-08T03:02:55.421Z,8.65
2022-08-08T03:05:03.583Z,10.26
2022-08-08T03:05:04.907Z,11.23
2022-08-08T03:05:56.386Z,10.91
2022-08-08T03:06:55.373Z,11.87
2022-08-08T03:07:58.578Z,11.23
2022-08-08T03:08:55.354Z,10.59
2022-08-08T03:09:55.342Z,10.59
2022-08-08T03:10:55.326Z,12.20
2022-08-08T03:12:02.536Z,10.26
2022-08-08T03:13:02.211Z,11.55
2022-08-08T03:16:00.051Z,12.52
2022-08-08T03:16:00.419Z,9.30
2022-08-08T03:16:03.241Z,10.26
2022-08-08T03:16:56.235Z,8.97
2022-08-08T03:18:04.583Z,12.52
2022-08-08T03:18:56.215Z,10.59
2022-08-08T03:19:55.215Z,11.23
2022-08-08T03:20:55.195Z,8.97
2022-08-08T03:21:59.640Z,10.26
2022-08-08T03:22:56.985Z,10.59
2022-08-08T03:23:59.869Z,10.59
2022-08-08T03:24:56.935Z,10.26
2022-08-08T03:25:56.068Z,10.26
2022-08-08T03:26:55.108Z,12.20
2022-08-08T03:27:56.823Z,9.62
2022-08-08T03:28:55.087Z,8.97
2022-08-08T03:29:56.860Z,8.97
2022-08-08T03:31:13.602Z,10.26
2022-08-08T03:32:06.339Z,10.59
2022-08-08T03:32:59.982Z,8.97
2022-08-08T03:34:00.706Z,10.26
2022-08-08T03:34:55.999Z,12.52
2022-08-08T03:35:54.990Z,10.26
2022-08-08T03:36:54.971Z,11.55
2022-08-08T03:38:54.600Z,9.62
2022-08-08T03:39:15.232Z,11.23
2022-08-08T03:40:00.406Z,8.97
2022-08-08T03:40:56.003Z,11.87
2022-08-08T03:42:13.378Z,10.59
2022-08-08T03:42:55.891Z,8.97
2022-08-08T03:43:54.892Z,11.87
2022-08-08T03:44:54.871Z,10.26
2022-08-08T03:46:05.233Z,10.26
2022-08-08T03:46:55.842Z,10.91
2022-08-08T03:47:54.837Z,8.33
2022-08-08T03:49:09.987Z,11.87
2022-08-08T03:50:01.811Z,8.97
2022-08-08T03:50:55.794Z,8.65
2022-08-08T03:51:54.795Z,9.94
2022-08-08T03:52:54.772Z,9.62
2022-08-08T03:53:54.963Z,8.65
2022-08-08T03:55:09.919Z,9.94
2022-08-08T03:56:04.264Z,8.65
2022-08-08T03:56:55.716Z,10.26
2022-08-08T03:58:35.798Z,9.30
2022-08-08T03:58:55.701Z,9.30
2022-08-08T03:59:59.563Z,8.97
2022-08-08T04:01:02.240Z,9.30
2022-08-08T04:02:13.041Z,8.65
2022-08-08T04:02:56.203Z,8.97
2022-08-08T04:03:58.275Z,8.33
2022-08-08T04:04:55.630Z,12.20
2022-08-08T04:05:54.597Z,10.59
2022-08-08T04:06:54.577Z,8.65
2022-08-08T04:07:54.578Z,9.94
2022-08-08T04:08:54.558Z,11.55
2022-08-08T04:10:03.251Z,9.30
2022-08-08T04:10:59.883Z,10.26
2022-08-08T04:12:00.507Z,12.52
2022-08-08T04:12:55.499Z,7.69
2022-08-08T04:14:33.519Z,8.65
2022-08-08T04:14:55.556Z,12.20
2022-08-08T04:16:04.217Z,8.65
2022-08-08T04:16:55.456Z,9.30
2022-08-08T04:17:58.962Z,10.26
2022-08-08T04:18:55.440Z,12.20
2022-08-08T04:19:54.412Z,10.59
2022-08-08T04:20:54.402Z,9.30
2022-08-08T04:21:54.683Z,9.30
2022-08-08T04:22:54.374Z,9.30
2022-08-08T04:24:05.521Z,10.59
2022-08-08T04:24:55.352Z,8.97
2022-08-08T04:25:54.343Z,11.87
2022-08-08T04:26:58.026Z,10.59
2022-08-08T04:28:34.470Z,10.91
2022-08-08T04:28:55.303Z,8.01
2022-08-08T04:29:55.180Z,9.30
2022-08-08T04:30:57.587Z,10.59
2022-08-08T04:31:58.794Z,10.59
2022-08-08T04:32:55.258Z,8.97
2022-08-08T04:33:54.244Z,10.59
2022-08-08T04:34:55.796Z,11.55
2022-08-08T04:35:54.216Z,10.91
2022-08-08T04:36:54.197Z,10.91
2022-08-08T04:37:54.209Z,12.52
2022-08-08T04:39:31.256Z,10.59
2022-08-08T04:40:07.079Z,11.55
2022-08-08T04:40:55.214Z,10.91
2022-08-08T04:41:54.128Z,10.59
2022-08-08T04:42:57.142Z,9.30
2022-08-08T04:43:57.197Z,9.30
2022-08-08T04:44:54.088Z,10.91
2022-08-08T04:45:54.078Z,7.69
2022-08-08T04:46:54.058Z,8.65
2022-08-08T04:47:54.058Z,11.23
2022-08-08T04:48:54.031Z,8.97
2022-08-08T04:50:00.696Z,10.91
2022-08-08T04:50:55.001Z,8.33
2022-08-08T04:51:54.980Z,10.59
2022-08-08T04:52:58.669Z,11.23
2022-08-08T04:54:39.283Z,10.91
2022-08-08T04:54:54.951Z,11.23
2022-08-08T04:55:55.539Z,11.23
2022-08-08T04:56:53.931Z,14.45
2022-08-08T04:57:53.931Z,10.59
2022-08-08T04:58:54.911Z,8.97
2022-08-08T04:59:53.893Z,10.26
2022-08-08T05:00:53.883Z,8.65
2022-08-08T05:01:53.929Z,11.55
2022-08-08T05:02:54.933Z,10.91
2022-08-08T05:04:10.587Z,11.23
2022-08-08T05:04:54.823Z,8.97
2022-08-08T05:05:53.814Z,9.30
2022-08-08T05:06:53.803Z,10.91
2022-08-08T05:07:53.799Z,12.84
2022-08-08T05:08:53.948Z,11.23
2022-08-08T05:09:54.271Z,10.59
2022-08-08T05:10:53.745Z,11.23
2022-08-08T05:11:56.996Z,11.55
2022-08-08T05:13:01.666Z,11.55
2022-08-08T05:13:57.780Z,11.23
2022-08-08T05:14:54.693Z,9.30
2022-08-08T05:16:52.130Z,12.84
2022-08-08T05:17:00.840Z,11.23
2022-08-08T05:17:54.806Z,10.91
2022-08-08T05:18:53.637Z,11.55
2022-08-08T05:20:09.840Z,10.91
2022-08-08T05:20:54.618Z,11.55
2022-08-08T05:21:59.447Z,11.55
2022-08-08T05:22:54.599Z,9.94
2022-08-08T05:24:04.291Z,13.16
2022-08-08T05:24:54.560Z,9.62
2022-08-08T05:26:00.244Z,10.59
2022-08-08T05:26:54.529Z,10.59
2022-08-08T05:27:54.767Z,11.55
2022-08-08T05:28:57.429Z,9.94
2022-08-08T05:29:54.869Z,11.55
2022-08-08T05:30:54.508Z,12.52
2022-08-08T05:32:03.577Z,10.26
2022-08-08T05:32:54.462Z,11.87
2022-08-08T05:33:53.452Z,11.55
2022-08-08T05:34:53.701Z,11.23
2022-08-08T05:35:54.157Z,12.20
2022-08-08T05:36:53.403Z,12.84
2022-08-08T05:37:54.488Z,11.23
2022-08-08T05:38:53.375Z,12.20
2022-08-08T05:39:53.449Z,12.20
2022-08-08T05:40:57.923Z,12.20
2022-08-08T05:41:55.529Z,11.87
2022-08-08T05:42:53.335Z,11.55
2022-08-08T05:44:03.455Z,11.87
2022-08-08T05:44:54.302Z,9.94
2022-08-08T05:45:55.142Z,11.55
2022-08-08T05:46:54.273Z,12.52
2022-08-08T05:48:01.746Z,11.23
2022-08-08T05:48:54.480Z,11.55
2022-08-08T05:49:56.053Z,11.55
2022-08-08T05:51:12.792Z,11.87
2022-08-08T05:51:54.217Z,11.87
2022-08-08T05:52:53.207Z,10.59
2022-08-08T05:54:24.321Z,12.20
2022-08-08T05:55:02.015Z,14.13
2022-08-08T05:56:05.178Z,14.13
2022-08-08T05:56:54.139Z,9.94
2022-08-08T05:58:03.790Z,10.26
2022-08-08T05:58:58.351Z,11.55
2022-08-08T06:00:00.562Z,12.20
2022-08-08T06:00:56.987Z,9.94
2022-08-08T06:01:57.760Z,14.45
2022-08-08T06:02:54.122Z,12.20
2022-08-08T06:03:53.657Z,12.52
2022-08-08T06:04:54.694Z,12.20
2022-08-08T06:05:53.032Z,12.52
2022-08-08T06:06:53.011Z,12.20
2022-08-08T06:08:00.154Z,13.49
2022-08-08T06:08:54.858Z,11.23
2022-08-08T06:09:59.384Z,12.84
2022-08-08T06:10:53.962Z,9.94
2022-08-08T06:11:52.953Z,12.52
2022-08-08T06:12:52.944Z,12.52
2022-08-08T06:13:52.923Z,12.52
2022-08-08T06:14:52.903Z,12.84
2022-08-08T06:15:53.662Z,10.91
2022-08-08T06:16:52.874Z,14.13
2022-08-08T06:18:20.571Z,12.52
2022-08-08T06:18:53.855Z,12.52
2022-08-08T06:19:52.845Z,12.84
2022-08-08T06:20:56.464Z,12.52
2022-08-08T06:21:57.302Z,12.84
2022-08-08T06:22:53.817Z,11.55
2022-08-08T06:24:02.401Z,11.23
2022-08-08T06:24:53.780Z,11.55
2022-08-08T06:26:35.202Z,15.42
2022-08-08T06:26:53.754Z,15.10
2022-08-08T06:27:52.751Z,11.87
2022-08-08T06:28:54.182Z,11.55
2022-08-08T06:29:59.830Z,13.16
2022-08-08T06:30:53.702Z,12.84
2022-08-08T06:32:10.461Z,11.87
2022-08-08T06:32:53.689Z,11.55
2022-08-08T06:34:26.306Z,13.16
2022-08-08T06:35:12.012Z,14.78
2022-08-08T06:36:06.177Z,13.49
2022-08-08T06:36:54.226Z,14.13
2022-08-08T06:37:56.181Z,13.16
2022-08-08T06:38:53.601Z,12.84
2022-08-08T06:39:55.704Z,13.81
2022-08-08T06:40:54.108Z,11.55
2022-08-08T06:41:52.562Z,14.78
2022-08-08T06:42:53.517Z,11.87
2022-08-08T06:43:57.292Z,14.78
2022-08-08T06:44:53.523Z,13.49
2022-08-08T06:45:52.569Z,11.23
2022-08-08T06:46:52.494Z,12.84
2022-08-08T06:48:01.258Z,14.45
2022-08-08T06:48:53.471Z,12.84
2022-08-08T06:49:56.575Z,11.87
2022-08-08T06:50:52.445Z,13.49
2022-08-08T06:51:58.101Z,13.49
2022-08-08T06:52:53.425Z,14.13
2022-08-08T06:53:56.258Z,13.49
2022-08-08T06:54:52.394Z,13.49
2022-08-08T06:56:00.707Z,11.87
2022-08-08T06:56:53.379Z,13.49
2022-08-08T06:57:56.338Z,12.84
2022-08-08T06:58:53.336Z,13.49
2022-08-08T07:00:11.220Z,13.49
2022-08-08T07:00:53.320Z,12.84
2022-08-08T07:02:17.066Z,15.10
2022-08-08T07:02:53.327Z,14.13
2022-08-08T07:04:38.615Z,12.52
2022-08-08T07:04:53.352Z,12.84
2022-08-08T07:06:02.133Z,13.16
2022-08-08T07:06:53.241Z,13.49
2022-08-08T07:07:52.354Z,13.16
2022-08-08T07:08:52.210Z,13.49
2022-08-08T07:09:59.167Z,12.84
2022-08-08T07:10:53.181Z,12.20
2022-08-08T07:11:52.184Z,13.49
2022-08-08T07:12:52.162Z,13.16
2022-08-08T07:14:00.795Z,13.49
2022-08-08T07:14:53.132Z,13.16
2022-08-08T07:16:05.048Z,13.16
2022-08-08T07:16:54.362Z,13.81
2022-08-08T07:18:01.492Z,13.49
2022-08-08T07:18:55.902Z,13.81
2022-08-08T07:19:52.074Z,12.84
2022-08-08T07:20:52.057Z,13.49
2022-08-08T07:21:52.044Z,10.59
2022-08-08T07:22:52.024Z,15.10
2022-08-08T07:24:01.144Z,11.87
2022-08-08T07:24:53.109Z,14.78
2022-08-08T07:25:54.502Z,11.55
2022-08-08T07:26:53.035Z,13.16
2022-08-08T07:28:02.787Z,14.45
2022-08-08T07:28:52.946Z,12.84
2022-08-08T07:30:02.335Z,13.81
2022-08-08T07:30:52.927Z,13.81
2022-08-08T07:31:51.926Z,14.78
2022-08-08T07:32:52.839Z,13.16
2022-08-08T07:33:59.105Z,13.16
2022-08-08T07:35:00.317Z,13.49
2022-08-08T07:35:54.529Z,13.16
2022-08-08T07:36:51.849Z,12.20
2022-08-08T07:38:04.747Z,13.81
2022-08-08T07:38:53.408Z,13.49
2022-08-08T07:39:57.926Z,14.45
2022-08-08T07:40:52.780Z,15.42
2022-08-08T07:42:04.454Z,14.13
2022-08-08T07:42:52.761Z,13.81
2022-08-08T07:43:53.581Z,13.81
2022-08-08T07:44:51.730Z,13.81
2022-08-08T07:46:18.155Z,14.78
2022-08-08T07:46:52.713Z,14.45
2022-08-08T07:47:51.781Z,14.78
2022-08-08T07:48:52.624Z,15.42
2022-08-08T07:49:51.674Z,15.10
2022-08-08T07:50:52.625Z,14.13
2022-08-08T07:51:53.787Z,15.10
2022-08-08T07:52:51.624Z,15.74
2022-08-08T07:54:02.338Z,13.49
2022-08-08T07:54:53.551Z,15.10
2022-08-08T07:55:52.553Z,15.10
2022-08-08T07:56:51.576Z,16.71
2022-08-08T07:57:52.521Z,14.78
2022-08-08T07:58:51.554Z,13.81
2022-08-08T07:59:52.485Z,14.78
2022-08-08T08:00:51.591Z,14.13
2022-08-08T08:02:32.735Z,15.74
2022-08-08T08:02:53.446Z,16.39
2022-08-08T08:03:51.479Z,14.78
2022-08-08T08:04:52.159Z,16.39
2022-08-08T08:05:53.319Z,14.45
2022-08-08T08:06:51.449Z,16.06
2022-08-08T08:07:53.137Z,15.42
2022-08-08T08:08:52.304Z,15.10
2022-08-08T08:09:52.351Z,15.74
2022-08-08T08:10:51.402Z,14.78
2022-08-08T08:11:52.825Z,15.42
2022-08-08T08:12:52.320Z,17.03
2022-08-08T08:14:08.328Z,13.49
2022-08-08T08:14:52.343Z,13.16
2022-08-08T08:15:52.292Z,15.74
2022-08-08T08:16:52.260Z,14.78
2022-08-08T08:17:55.967Z,14.78
2022-08-08T08:18:56.113Z,16.06
2022-08-08T08:19:55.697Z,15.74
2022-08-08T08:20:51.263Z,16.71
2022-08-08T08:21:57.079Z,16.06
2022-08-08T08:22:53.186Z,14.45
2022-08-08T08:23:51.369Z,16.39
2022-08-08T08:24:52.153Z,15.42
2022-08-08T08:25:56.722Z,15.42
2022-08-08T08:26:52.741Z,15.74
2022-08-08T08:27:52.122Z,15.74
2022-08-08T08:28:51.147Z,17.03
2022-08-08T08:29:53.408Z,15.74
2022-08-08T08:30:52.097Z,16.06
2022-08-08T08:31:54.183Z,15.42
2022-08-08T08:32:52.227Z,17.68
2022-08-08T08:33:52.029Z,17.35
2022-08-08T08:34:51.069Z,16.06
2022-08-08T08:36:20.500Z,15.10
2022-08-08T08:36:54.794Z,16.39
2022-08-08T08:38:15.035Z,17.03
2022-08-08T08:38:52.020Z,14.45
2022-08-08T08:40:01.012Z,15.74
2022-08-08T08:40:52.963Z,13.49
2022-08-08T08:41:50.974Z,15.42
2022-08-08T08:42:50.962Z,17.03
2022-08-08T08:43:50.953Z,16.06
2022-08-08T08:44:51.899Z,17.35
2022-08-08T08:45:50.935Z,17.35
2022-08-08T08:46:58.623Z,15.74
2022-08-08T08:47:53.342Z,15.10
2022-08-08T08:48:50.886Z,17.35
2022-08-08T08:49:50.872Z,15.10
2022-08-08T08:50:52.074Z,16.71
2022-08-08T08:51:51.216Z,12.84
2022-08-08T08:53:00.093Z,16.39
2022-08-08T08:53:56.525Z,16.06
2022-08-08T08:54:55.704Z,16.71
2022-08-08T08:55:50.793Z,15.10
2022-08-08T08:56:50.788Z,16.06
2022-08-08T08:57:50.830Z,16.39
2022-08-08T08:58:50.759Z,16.06
2022-08-08T08:59:58.966Z,16.71
2022-08-08T09:01:08.794Z,17.68
2022-08-08T09:01:51.793Z,16.71
2022-08-08T09:02:50.710Z,18.00
2022-08-08T09:03:51.449Z,17.03
2022-08-08T09:04:50.700Z,17.03
2022-08-08T09:05:54.888Z,16.39
2022-08-08T09:06:51.691Z,17.35
2022-08-08T09:07:52.441Z,17.03
2022-08-08T09:08:52.153Z,18.00
2022-08-08T09:09:57.126Z,17.35
2022-08-08T09:10:51.603Z,16.71
2022-08-08T09:12:01.676Z,16.39
2022-08-08T09:12:51.573Z,17.03
2022-08-08T09:13:50.565Z,17.35
2022-08-08T09:14:51.552Z,15.74
2022-08-08T09:15:50.534Z,15.74
2022-08-08T09:16:51.526Z,16.71
2022-08-08T09:17:52.313Z,16.39
2022-08-08T09:18:50.527Z,16.06
2022-08-08T09:21:57.824Z,18.32
2022-08-08T09:21:59.698Z,17.68
2022-08-08T09:22:02.131Z,18.96
2022-08-08T09:22:55.239Z,17.68
2022-08-08T09:23:51.427Z,18.00
2022-08-08T09:24:50.432Z,18.64
2022-08-08T09:25:57.824Z,16.71
2022-08-08T09:26:51.684Z,17.35
2022-08-08T09:27:57.445Z,17.68
2022-08-08T09:28:51.370Z,17.68
2022-08-08T09:29:52.559Z,17.68
2022-08-08T09:30:50.351Z,17.03
2022-08-08T09:31:56.408Z,17.35
2022-08-08T09:33:13.227Z,17.35
2022-08-08T09:34:15.231Z,17.35
2022-08-08T09:34:51.303Z,17.03
2022-08-08T09:35:50.983Z,17.68
2022-08-08T09:37:10.128Z,18.00
2022-08-08T09:37:58.509Z,19.61
2022-08-08T09:38:53.389Z,17.35
2022-08-08T09:39:50.285Z,18.96
2022-08-08T09:40:52.562Z,18.64
2022-08-08T09:42:15.180Z,18.00
2022-08-08T09:42:52.085Z,18.32
2022-08-08T09:44:05.555Z,19.29
2022-08-08T09:44:51.167Z,18.96
2022-08-08T09:46:02.031Z,18.96
2022-08-08T09:46:57.103Z,19.61
2022-08-08T09:48:04.240Z,18.64
2022-08-08T09:48:51.108Z,19.61
2022-08-08T09:49:51.358Z,18.96
2022-08-08T09:50:50.517Z,16.39
2022-08-08T09:52:07.181Z,18.96
2022-08-08T09:52:57.736Z,19.29
2022-08-08T09:53:59.354Z,17.35
2022-08-08T09:54:51.043Z,20.25
2022-08-08T09:56:04.289Z,19.29
2022-08-08T09:56:51.014Z,18.96
2022-08-08T09:57:55.728Z,18.64
2022-08-08T09:58:50.984Z,18.32
2022-08-08T10:00:07.599Z,18.32
2022-08-08T10:00:57.016Z,18.64
2022-08-08T10:01:59.274Z,17.68
2022-08-08T10:02:50.945Z,19.29
2022-08-08T10:03:55.785Z,17.68
2022-08-08T10:04:50.941Z,18.00
2022-08-08T10:05:50.003Z,20.25
2022-08-08T10:06:52.936Z,18.96
2022-08-08T10:07:49.860Z,18.64
2022-08-08T10:08:49.848Z,18.64
2022-08-08T10:09:59.557Z,18.96
2022-08-08T10:10:51.336Z,17.68
2022-08-08T10:12:25.992Z,19.29
2022-08-08T10:12:53.964Z,19.61
2022-08-08T10:13:57.377Z,19.29
2022-08-08T10:14:50.781Z,19.29
2022-08-08T10:16:01.047Z,19.29
2022-08-08T10:16:51.121Z,19.29
2022-08-08T10:18:06.627Z,19.61
2022-08-08T10:18:55.300Z,22.51
2022-08-08T10:19:58.116Z,19.93
2022-08-08T10:20:58.194Z,19.93
2022-08-08T10:21:51.284Z,20.25
2022-08-08T10:22:54.812Z,19.61
2022-08-08T10:23:57.980Z,21.54
2022-08-08T10:24:50.646Z,19.61
2022-08-08T10:25:56.948Z,19.61
2022-08-08T10:26:59.268Z,20.90
2022-08-08T10:27:50.607Z,19.93
2022-08-08T10:28:53.957Z,18.64
2022-08-08T10:29:58.445Z,18.32
2022-08-08T10:31:00.835Z,19.61
2022-08-08T10:31:50.548Z,19.29
2022-08-08T10:32:50.934Z,19.29
2022-08-08T10:34:18.907Z,20.90
2022-08-08T10:34:51.107Z,18.96
2022-08-08T10:36:08.371Z,19.93
2022-08-08T10:36:50.489Z,19.61
2022-08-08T10:37:49.469Z,19.61
2022-08-08T10:38:49.468Z,19.61
2022-08-08T10:39:54.514Z,19.61
2022-08-08T10:40:50.441Z,15.10
2022-08-08T10:42:13.366Z,18.96
2022-08-08T10:42:50.407Z,19.29
2022-08-08T10:43:49.399Z,19.93
2022-08-08T10:44:50.368Z,18.64
2022-08-08T10:45:55.892Z,20.25
2022-08-08T10:46:50.356Z,19.93
2022-08-08T10:47:55.244Z,18.96
2022-08-08T10:48:56.504Z,20.25
2022-08-08T10:50:00.783Z,20.25
2022-08-08T10:50:50.306Z,20.58
2022-08-08T10:51:51.452Z,19.93
2022-08-08T10:52:50.236Z,20.25
2022-08-08T10:53:58.843Z,21.22
2022-08-08T10:54:50.249Z,20.25
2022-08-08T10:55:49.238Z,20.25
2022-08-08T10:56:49.229Z,20.25
2022-08-08T10:57:50.792Z,19.93
2022-08-08T10:58:54.895Z,19.93
2022-08-08T10:59:50.190Z,20.25
2022-08-08T11:01:01.808Z,21.22
2022-08-08T11:01:54.817Z,20.58
2022-08-08T11:02:50.165Z,20.25
2022-08-08T11:04:00.651Z,19.29
2022-08-08T11:04:53.894Z,20.58
2022-08-08T11:05:51.677Z,20.25
2022-08-08T11:06:49.434Z,20.90
2022-08-08T11:08:37.166Z,19.61
2022-08-08T11:08:53.489Z,21.22
2022-08-08T11:09:49.054Z,20.58
2022-08-08T11:10:49.066Z,21.54
2022-08-08T11:12:06.318Z,18.32
2022-08-08T11:12:57.903Z,21.87
2022-08-08T11:13:51.994Z,19.61
2022-08-08T11:14:50.002Z,21.22
2022-08-08T11:15:54.752Z,21.54
2022-08-08T11:16:49.970Z,21.22
2022-08-08T11:18:01.297Z,19.61
2022-08-08T11:18:50.979Z,20.25
2022-08-08T11:19:52.801Z,21.54
2022-08-08T11:20:52.337Z,19.93
2022-08-08T11:21:55.604Z,21.22
2022-08-08T11:22:49.908Z,21.22
2022-08-08T11:24:02.064Z,19.93
2022-08-08T11:24:49.870Z,20.90
2022-08-08T11:25:57.053Z,22.19
2022-08-08T11:26:56.441Z,20.58
2022-08-08T11:27:49.833Z,20.58
2022-08-08T11:28:50.194Z,18.96
2022-08-08T11:30:04.553Z,19.29
2022-08-08T11:30:50.494Z,20.25
2022-08-08T11:31:48.775Z,20.58
2022-08-08T11:32:48.771Z,19.61
2022-08-08T11:33:49.745Z,20.25
2022-08-08T11:35:49.717Z,20.90
2022-08-08T11:36:51.045Z,19.93
2022-08-08T11:38:36.977Z,20.90
2022-08-08T11:38:54.691Z,22.51
2022-08-08T11:39:57.415Z,18.96
2022-08-08T11:40:52.400Z,20.90
2022-08-08T11:41:48.639Z,21.87
2022-08-08T11:42:48.670Z,20.25
2022-08-08T11:43:48.981Z,20.25
2022-08-08T11:44:48.640Z,21.87
2022-08-08T11:46:09.574Z,20.90
2022-08-08T11:46:54.154Z,21.22
2022-08-08T11:48:04.325Z,20.90
2022-08-08T11:48:49.561Z,21.87
2022-08-08T11:49:49.009Z,20.58
2022-08-08T11:50:48.533Z,19.93
2022-08-08T11:51:50.311Z,21.22
2022-08-08T11:52:48.686Z,20.58
2022-08-08T11:53:59.225Z,21.54
2022-08-08T11:54:49.488Z,21.22
2022-08-08T11:55:48.479Z,20.90
2022-08-08T11:56:56.642Z,19.93
2022-08-08T11:57:51.636Z,20.90
2022-08-08T11:58:50.772Z,20.90
2022-08-08T11:59:58.311Z,20.58
2022-08-08T12:00:49.408Z,19.93
2022-08-08T12:01:48.388Z,21.87
2022-08-08T12:02:48.946Z,20.58
2022-08-08T12:03:48.392Z,21.22
2022-08-08T12:04:48.347Z,19.93
2022-08-08T12:05:48.330Z,20.58
2022-08-08T12:06:49.325Z,19.93
2022-08-08T12:07:49.724Z,20.25
2022-08-08T12:08:48.541Z,21.87
2022-08-08T12:09:59.472Z,20.25
2022-08-08T12:10:49.267Z,20.58
2022-08-08T12:11:49.588Z,20.90
2022-08-08T12:12:48.799Z,20.90
2022-08-08T12:14:03.442Z,20.58
2022-08-08T12:14:54.850Z,20.90
2022-08-08T12:15:49.448Z,21.22
2022-08-08T12:16:48.959Z,21.87
2022-08-08T12:17:51.036Z,21.54
2022-08-08T12:18:48.177Z,22.19
2022-08-08T12:19:51.327Z,22.19
2022-08-08T12:20:48.149Z,21.22
2022-08-08T12:21:58.586Z,20.90
2022-08-08T12:22:49.118Z,21.22
2022-08-08T12:24:00.364Z,18.96
2022-08-08T12:24:53.897Z,20.58
2022-08-08T12:25:52.658Z,20.90
2022-08-08T12:26:49.920Z,22.19
2022-08-08T12:27:48.109Z,21.22
2022-08-08T12:28:48.051Z,20.90
2022-08-08T12:29:48.031Z,21.22
2022-08-08T12:30:50.182Z,21.22
2022-08-08T12:31:53.220Z,20.25
2022-08-08T12:32:49.004Z,21.54
2022-08-08T12:34:02.220Z,21.54
2022-08-08T12:34:48.986Z,20.90
2022-08-08T12:35:52.445Z,19.93
2022-08-08T12:36:49.166Z,21.22
2022-08-08T12:38:02.451Z,20.90
2022-08-08T12:38:48.918Z,21.22
2022-08-08T12:40:02.151Z,18.64
2022-08-08T12:40:56.555Z,21.54
2022-08-08T12:41:57.521Z,21.54
2022-08-08T12:42:48.870Z,22.19
2022-08-08T12:43:59.977Z,23.15
2022-08-08T12:44:50.446Z,20.90
2022-08-08T12:45:58.581Z,21.22
2022-08-08T12:46:49.769Z,22.19
2022-08-08T12:48:05.030Z,22.83
2022-08-08T12:48:59.828Z,23.48
2022-08-08T12:49:48.781Z,22.19
2022-08-08T12:50:47.793Z,23.48
2022-08-08T12:51:49.971Z,23.15
2022-08-08T12:52:48.742Z,24.44
2022-08-08T12:53:47.730Z,23.15
2022-08-08T12:54:47.712Z,23.15
2022-08-08T12:56:06.221Z,21.87